createdAt,value
2022-08-07T00:01:12.685Z,1.20
2022-08-07T00:06:29.462Z,1.20
2022-08-07T00:11:35.917Z,1.07
2022-08-07T00:16:50.525Z,1.30
2022-08-07T00:21:57.508Z,1.47
2022-08-07T00:27:07.316Z,1.20
2022-08-07T00:32:11.009Z,1.70
2022-08-07T00:37:17.116Z,1.20
2022-08-07T00:42:19.203Z,1.23
2022-08-07T00:48:08.829Z,1.40
2022-08-07T00:52:56.079Z,1.47
2022-08-07T00:57:58.229Z,1.50
2022-08-07T01:03:00.284Z,1.40
2022-08-07T01:08:04.879Z,1.30
2022-08-07T01:13:11.162Z,1.50
2022-08-07T01:18:18.637Z,1.60
2022-08-07T01:23:25.452Z,1.67
2022-08-07T01:28:39.889Z,1.70
2022-08-07T01:33:55.429Z,1.60
2022-08-07T01:39:09.559Z,1.30
2022-08-07T01:44:13.184Z,1.40
2022-08-07T01:49:15.498Z,3.50
2022-08-07T01:54:33.200Z,1.37
2022-08-07T01:59:45.217Z,1.60
2022-08-07T02:04:56.273Z,1.57
2022-08-07T02:10:01.977Z,1.90
2022-08-07T02:15:06.906Z,1.67
2022-08-07T02:20:17.154Z,1.83
2022-08-07T02:25:21.431Z,1.83
2022-08-07T02:30:44.835Z,1.40
2022-08-07T02:36:30.214Z,1.50
2022-08-07T02:41:21.578Z,1.37
2022-08-07T02:46:26.618Z,1.77
2022-08-07T02:51:42.429Z,1.60
2022-08-07T02:57:00.215Z,1.73
2022-08-07T03:02:03.356Z,1.43
2022-08-07T03:07:10.656Z,1.30
2022-08-07T03:12:22.702Z,1.60
2022-08-07T03:17:36.306Z,1.47
2022-08-07T03:22:57.495Z,1.80
2022-08-07T03:28:09.755Z,1.67
2022-08-07T03:33:32.324Z,1.90
2022-08-07T03:38:45.246Z,1.60
2022-08-07T03:43:57.354Z,1.73
2022-08-07T03:49:02.584Z,1.60
2022-08-07T03:54:35.819Z,1.40
2022-08-07T03:59:30.168Z,1.40
2022-08-07T04:04:32.791Z,1.30
2022-08-07T04:09:45.365Z,1.30
2022-08-07T04:14:56.337Z,1.33
2022-08-07T04:19:58.411Z,1.70
2022-08-07T04:25:01.981Z,1.60
2022-08-07T04:30:11.787Z,1.33
2022-08-07T04:35:16.012Z,1.60
2022-08-07T04:40:18.197Z,1.57
2022-08-07T04:45:57.793Z,2.17
2022-08-07T04:51:00.265Z,1.50
2022-08-07T04:58:10.762Z,1.63
2022-08-07T05:01:42.973Z,1.40
2022-08-07T05:06:53.510Z,1.27
2022-08-07T05:11:56.778Z,1.23
2022-08-07T05:17:05.977Z,1.10
2022-08-07T05:22:19.047Z,1.00
2022-08-07T05:28:16.662Z,1.75
2022-08-07T05:32:55.595Z,1.73
2022-08-07T05:38:09.043Z,1.95
2022-08-07T05:43:12.364Z,2.70
2022-08-07T05:48:18.089Z,2.15
2022-08-07T05:54:13.869Z,1.90
2022-08-07T05:58:52.722Z,1.50
2022-08-07T06:04:01.147Z,1.77
2022-08-07T06:09:05.218Z,1.52
2022-08-07T06:14:12.182Z,1.40
2022-08-07T06:19:58.199Z,1.17
2022-08-07T06:24:56.856Z,1.33
2022-08-07T06:30:01.181Z,1.30
2022-08-07T06:35:17.605Z,1.45
2022-08-07T06:40:21.252Z,1.15
2022-08-07T06:45:24.811Z,1.20
2022-08-07T06:50:31.009Z,1.00
2022-08-07T06:56:00.451Z,1.30
2022-08-07T07:00:58.822Z,1.20
2022-08-07T07:06:06.293Z,1.05
2022-08-07T07:12:09.713Z,0.90
2022-08-07T07:16:49.780Z,1.10
2022-08-07T07:22:05.348Z,0.88
2022-08-07T07:27:20.393Z,0.70
2022-08-07T07:32:25.007Z,0.95
2022-08-07T07:37:47.164Z,0.73
2022-08-07T07:42:55.585Z,0.88
2022-08-07T07:47:59.860Z,0.80
2022-08-07T07:53:04.397Z,0.63
2022-08-07T07:58:06.654Z,0.77
2022-08-07T08:03:16.573Z,1.00
2022-08-07T08:08:35.058Z,0.65
2022-08-07T08:13:54.348Z,0.70
2022-08-07T08:19:00.458Z,0.70
2022-08-07T08:24:36.183Z,0.82
2022-08-07T08:29:54.219Z,0.40
2022-08-07T08:34:58.620Z,0.52
2022-08-07T08:40:03.074Z,0.82
2022-08-07T08:45:13.465Z,0.45
2022-08-07T08:50:28.427Z,0.57
2022-08-07T08:55:58.591Z,0.40
2022-08-07T09:01:15.197Z,0.52
2022-08-07T09:06:32.983Z,0.47
2022-08-07T09:11:50.673Z,0.60
2022-08-07T09:17:07.604Z,0.70
2022-08-07T09:24:28.519Z,0.80
2022-08-07T09:28:00.121Z,0.73
2022-08-07T09:33:16.903Z,0.57
2022-08-07T09:38:50.108Z,0.80
2022-08-07T09:44:10.215Z,0.70
2022-08-07T09:50:02.396Z,0.80
2022-08-07T09:55:16.890Z,0.55
2022-08-07T10:00:29.744Z,0.80
2022-08-07T10:06:10.584Z,0.70
2022-08-07T10:12:01.204Z,0.60
2022-08-07T10:17:33.936Z,0.57
2022-08-07T10:23:11.886Z,0.68
2022-08-07T10:28:49.396Z,0.70
2022-08-07T10:34:15.276Z,0.90
2022-08-07T10:39:41.583Z,0.65
2022-08-07T10:45:02.980Z,0.70
2022-08-07T10:50:15.148Z,0.65
2022-08-07T10:55:36.904Z,0.90
2022-08-07T11:00:50.433Z,0.47
2022-08-07T11:06:06.078Z,0.57
2022-08-07T11:11:14.046Z,0.70
2022-08-07T11:16:21.577Z,0.50
2022-08-07T11:21:43.054Z,0.60
2022-08-07T11:26:50.908Z,0.63
2022-08-07T11:32:01.101Z,0.60
2022-08-07T11:37:13.241Z,0.70
2022-08-07T11:42:20.911Z,0.75
2022-08-07T11:47:56.575Z,0.47
2022-08-07T11:53:21.911Z,0.50
2022-08-07T11:58:38.428Z,0.63
2022-08-07T12:04:08.830Z,0.60
2022-08-07T12:09:22.923Z,0.50
2022-08-07T12:14:30.149Z,0.52
2022-08-07T12:20:02.690Z,0.40
2022-08-07T12:26:00.223Z,0.57
2022-08-07T12:30:40.623Z,0.60
2022-08-07T12:35:58.222Z,0.60
2022-08-07T12:41:03.716Z,0.60
2022-08-07T12:46:26.399Z,0.68
2022-08-07T12:51:51.302Z,0.60
2022-08-07T12:57:07.445Z,0.50
2022-08-07T13:02:35.979Z,0.57
2022-08-07T13:08:14.006Z,0.70
2022-08-07T13:13:46.703Z,0.60
2022-08-07T13:18:56.894Z,0.75
2022-08-07T13:24:07.085Z,0.60
2022-08-07T13:29:20.727Z,0.63
2022-08-07T13:34:35.870Z,0.52
2022-08-07T13:40:33.506Z,0.60
2022-08-07T13:46:06.390Z,0.70
2022-08-07T13:51:00.242Z,0.50
2022-08-07T13:56:01.060Z,0.75
2022-08-07T14:01:13.776Z,0.50
2022-08-07T14:06:16.404Z,0.52
2022-08-07T14:11:22.364Z,0.60
2022-08-07T14:16:33.335Z,0.50
2022-08-07T14:22:01.696Z,0.30
2022-08-07T14:28:11.657Z,0.70
2022-08-07T14:32:41.013Z,0.50
2022-08-07T14:37:46.027Z,0.50
2022-08-07T14:43:57.645Z,0.55
2022-08-07T14:48:36.066Z,0.60
2022-08-07T14:54:09.847Z,0.50
2022-08-07T14:59:14.101Z,0.50
2022-08-07T15:04:33.553Z,0.55
2022-08-07T15:09:59.769Z,0.50
2022-08-07T15:20:54.623Z,0.52
2022-08-07T15:25:57.292Z,0.50
2022-08-07T15:31:04.749Z,0.80
2022-08-07T15:36:09.650Z,0.60
2022-08-07T15:41:23.696Z,0.75
2022-08-07T15:46:51.650Z,0.70
2022-08-07T15:57:00.609Z,0.70
2022-08-07T16:02:04.881Z,0.60
2022-08-07T16:08:30.324Z,0.80
2022-08-07T16:13:01.115Z,0.80
2022-08-07T16:18:49.584Z,0.73
2022-08-07T16:23:58.755Z,0.50
2022-08-07T16:30:08.246Z,0.60
2022-08-07T16:34:48.156Z,0.60
2022-08-07T16:40:28.149Z,0.60
2022-08-07T16:46:34.670Z,0.75
2022-08-07T16:51:54.024Z,0.65
2022-08-07T16:57:07.004Z,0.65
2022-08-07T17:02:51.235Z,0.70
2022-08-07T17:07:59.261Z,0.60
2022-08-07T17:13:41.600Z,1.27
2022-08-07T17:19:15.779Z,0.88
2022-08-07T17:24:35.814Z,0.80
2022-08-07T17:30:15.731Z,0.50
2022-08-07T17:35:50.945Z,0.70
2022-08-07T17:42:01.057Z,0.73
2022-08-07T17:46:36.165Z,0.70
2022-08-07T17:52:00.790Z,0.65
2022-08-07T17:57:18.936Z,0.60
2022-08-07T18:02:30.056Z,0.80
2022-08-07T18:07:43.885Z,0.90
2022-08-07T18:13:34.034Z,0.70
2022-08-07T18:21:03.778Z,0.85
2022-08-07T18:24:33.064Z,0.63
2022-08-07T18:30:08.444Z,0.85
2022-08-07T18:35:22.594Z,1.35
2022-08-07T18:40:42.768Z,1.05
2022-08-07T18:46:25.140Z,0.95
2022-08-07T18:52:34.001Z,1.13
2022-08-07T18:57:29.702Z,1.17
2022-08-07T19:02:36.899Z,2.50
2022-08-07T19:07:57.472Z,1.50
2022-08-07T19:13:09.895Z,1.20
2022-08-07T19:18:34.577Z,1.20
2022-08-07T19:23:58.990Z,1.13
2022-08-07T19:31:03.821Z,1.90
2022-08-07T19:34:32.502Z,1.03
2022-08-07T19:39:56.126Z,1.30
2022-08-07T19:45:08.677Z,1.00
2022-08-07T19:50:41.325Z,1.80
2022-08-07T19:55:57.615Z,1.13
2022-08-07T20:00:57.976Z,1.37
2022-08-07T20:06:02.530Z,1.00
2022-08-07T20:11:12.146Z,1.50
2022-08-07T20:16:35.277Z,1.20
2022-08-07T20:21:42.067Z,0.90
2022-08-07T20:26:55.875Z,1.37
2022-08-07T20:32:01.400Z,1.10
2022-08-07T20:37:05.726Z,1.20
2022-08-07T20:42:12.600Z,1.20
2022-08-07T20:47:25.197Z,1.07
2022-08-07T20:52:50.751Z,1.30
2022-08-07T20:58:02.422Z,1.20
2022-08-07T21:03:08.067Z,1.23
2022-08-07T21:08:14.514Z,1.10
2022-08-07T21:13:24.686Z,1.00
2022-08-07T21:18:46.378Z,1.10
2022-08-07T21:24:02.077Z,1.00
2022-08-07T21:29:15.635Z,1.13
2022-08-07T21:34:26.497Z,1.63
2022-08-07T21:39:47.202Z,1.70
2022-08-07T21:44:57.801Z,1.30
2022-08-07T21:50:08.507Z,1.60
2022-08-07T21:55:30.210Z,1.20
2022-08-07T22:00:37.257Z,1.40
2022-08-07T22:05:49.747Z,1.17
2022-08-07T22:10:55.277Z,1.50
2022-08-07T22:16:44.688Z,1.20
2022-08-07T22:22:01.887Z,1.07
2022-08-07T22:27:06.803Z,1.27
2022-08-07T22:32:20.548Z,1.47
2022-08-07T22:38:04.664Z,1.27
2022-08-07T22:42:59.245Z,1.03
2022-08-07T22:48:56.068Z,1.20
2022-08-07T22:54:07.080Z,1.47
2022-08-07T22:59:35.455Z,1.30
2022-08-07T23:04:58.031Z,1.33
2022-08-07T23:10:36.363Z,1.40
2022-08-07T23:16:06.215Z,1.50
2022-08-07T23:21:30.443Z,1.50
2022-08-07T23:26:55.075Z,1.80
2022-08-07T23:34:18.859Z,1.50
2022-08-07T23:38:01.366Z,1.70
2022-08-07T23:43:20.909Z,1.50
2022-08-07T23:48:50.273Z,1.77
2022-08-07T23:54:03.300Z,1.63
